Time;durP1;ratioP1;P1;durP2;ratioP2;P2;SDS_P1;SDS_P2;PMS_P1;PMS_P2;Temp;Humidity;BMP_temperature;BMP_pressure;BME280_temperature;BME280_humidity;BME280_pressure;Samples;Min_cycle;Max_cycle;Signal;HPM_P1;HPM_P2
2023/02/09 00:01:57;;;;;;;;;;;;;;;;;;5054430;28;20003;-84
2023/02/09 00:04:22;;;;;;;;;;;;;;;0.02;100.00;66776.63;5054108;28;19927;-82
2023/02/09 00:06:47;;;;;;;;;;;;;;;-0.06;100.00;66776.63;5050953;28;19964;-84
2023/02/09 00:09:13;;;;;;;;;;;;;;;-0.05;100.00;66779.78;5047450;28;19935;-83
2023/02/09 00:14:22;;;;;;;;;;;;;;;-0.03;100.00;66782.59;5047693;28;20433;-81
2023/02/09 00:16:47;;;;;;;;;;;;;;;-0.04;100.00;66776.25;5051033;28;19984;-84
2023/02/09 00:19:13;;;;;;;;;;;;;;;-0.07;100.00;66772.88;5050190;28;19935;-84
2023/02/09 00:21:39;;;;;;;;;;;;;;;-0.08;100.00;66773.81;5044952;28;19929;-84
2023/02/09 00:24:05;;;;;;;;;;;;;;;-0.04;100.00;66778.84;5046636;28;19921;-83
2023/02/09 00:26:30;;;;;;;;;;;;;;;;;;5056958;28;19925;-83
2023/02/09 00:28:55;;;;;;;;;;;;;;;-0.08;100.00;66771.75;5049860;28;19921;-82
2023/02/09 00:31:20;;;;;;;;;;;;;;;-0.08;100.00;66773.81;5047999;28;20394;-84
2023/02/09 00:33:46;;;;;;;;;;;;;;;-0.05;100.00;66774.56;5048685;28;19921;-84
2023/02/09 00:36:11;;;;;;;;;;;;;;;-0.08;100.00;66776.44;5049897;28;19921;-84
2023/02/09 00:38:36;;;;;;;;;;;;;;;;;;5047682;28;20448;-85
2023/02/09 00:41:02;;;;;;;;;;;;;;;-0.17;100.00;66763.69;5051218;28;20467;-85
2023/02/09 00:43:27;;;;;;;;;;;;;;;;;;5049185;28;19921;-84
2023/02/09 00:45:53;;;;;;;;;;;;;;;-0.16;100.00;66767.44;5051518;28;19932;-84
2023/02/09 00:48:18;;;;;;;;;;;;;;;-0.17;100.00;66761.06;5049798;28;19987;-83
2023/02/09 00:50:43;;;;;;;;;;;;;;;-0.18;100.00;66759.94;5049713;28;19932;-84
2023/02/09 00:53:08;;;;;;;;;;;;;;;;;;5050403;28;20349;-84
2023/02/09 00:55:33;;;;;;;;;;;;;;;-0.22;100.00;66750.78;5051256;28;19939;-83
2023/02/09 00:57:59;;;;;;;;;;;;;;;-0.20;100.00;66757.69;5048817;28;20043;-84
2023/02/09 01:00:25;;;;;;;;;;;;;;;-0.19;100.00;66761.44;5052838;28;20393;-84
2023/02/09 01:02:50;;;;;;;;;;;;;;;-0.21;100.00;66756.56;5049893;28;20314;-84
2023/02/09 01:05:15;;;;;;;;;;;;;;;-0.27;100.00;66753.00;5045676;28;19920;-82
2023/02/09 01:07:40;;;;;;;;;;;;;;;-0.32;100.00;66744.75;5045418;28;19956;-84
2023/02/09 01:10:06;;;;;;;;;;;;;;;-0.32;100.00;66747.94;5048630;28;20007;-84
2023/02/09 01:12:31;;;;;;;;;;;;;;;-0.30;100.00;66752.81;5047399;28;19920;-82
2023/02/09 01:14:57;;;;;;;;;;;;;;;-0.37;100.00;66739.16;5047505;28;20015;-85
2023/02/09 01:17:22;;;;;;;;;;;;;;;-0.35;100.00;66736.72;5046013;28;19921;-85
2023/02/09 01:19:47;;;;;;;;;;;;;;;;;;5045548;28;19935;-83
2023/02/09 01:22:15;;;;;;;;;;;;;;;-0.42;100.00;66734.09;5047885;28;19925;-85
2023/02/09 01:24:40;;;;;;;;;;;;;;;-0.48;100.00;66729.97;5046586;28;19928;-83
2023/02/09 01:27:05;;;;;;;;;;;;;;;-0.43;100.00;66732.97;5048915;28;19921;-85
2023/02/09 01:29:30;;;;;;;;;;;;;;;-0.48;100.00;66727.34;5051275;28;19927;-85
2023/02/09 01:31:56;;;;;;;;;;;;;;;-0.49;100.00;66728.81;5050503;28;19921;-83
2023/02/09 01:34:21;;;;;;;;;;;;;;;-0.51;100.00;66723.97;5052249;28;19975;-85
2023/02/09 01:36:47;;;;;;;;;;;;;;;-0.53;100.00;66722.28;5046996;28;19925;-84
2023/02/09 01:39:12;;;;;;;;;;;;;;;-0.58;100.00;66718.72;5046035;28;19921;-84
2023/02/09 01:41:38;;;;;;;;;;;;;;;;;;5052685;28;19929;-85
2023/02/09 01:44:05;;;;;;;;;;;;;;;-0.65;100.00;66716.09;5048827;28;20393;-85
2023/02/09 01:46:34;;;;;;;;;;;;;;;-0.69;100.00;66704.31;5050389;28;19928;-86
2023/02/09 01:49:02;;;;;;;;;;;;;;;-0.75;100.00;66703.38;5049698;28;19934;-84
2023/02/09 01:51:28;;;;;;;;;;;;;;;-0.73;100.00;66699.81;5048973;28;19927;-84
2023/02/09 01:53:54;;;;;;;;;;;;;;;-0.76;100.00;66697.00;5048927;28;20398;-84
2023/02/09 01:56:25;;;;;;;;;;;;;;;-0.80;100.00;66692.53;5043055;28;19999;-85
2023/02/09 01:58:50;;;;;;;;;;;;;;;-0.84;100.00;66690.06;5049680;28;19974;-84
2023/02/09 02:01:16;;;;;;;;;;;;;;;-0.91;100.00;66680.72;5049767;28;19928;-84
2023/02/09 02:03:41;;;;;;;;;;;;;;;-0.88;100.00;66685.59;5052892;28;19970;-85
2023/02/09 02:06:11;;;;;;;;;;;;;;;-0.93;100.00;66677.91;5054560;28;19924;-83
2023/02/09 02:08:50;;;;;;;;;;;;;;;-0.93;100.00;66681.06;5057623;28;19928;-85
2023/02/09 02:11:16;;;;;;;;;;;;;;;-0.97;100.00;66676.59;5054924;28;19953;-83
2023/02/09 02:13:41;;;;;;;;;;;;;;;-0.99;100.00;66671.16;5047982;28;19925;-85
2023/02/09 02:16:06;;;;;;;;;;;;;;;-1.01;100.00;66668.91;5046293;28;19920;-84
2023/02/09 02:18:44;;;;;;;;;;;;;;;-1.06;100.00;66666.47;5049096;28;20220;-85
2023/02/09 02:21:18;;;;;;;;;;;;;;;-1.10;100.00;66664.59;5046520;28;19937;-83
2023/02/09 02:23:55;;;;;;;;;;;;;;;-1.15;100.00;66659.53;5047267;28;19927;-85
2023/02/09 02:26:44;;;;;;;;;;;;;;;-1.14;100.00;66655.44;5045819;28;19943;-85
2023/02/09 02:29:12;;;;;;;;;;;;;;;-1.16;100.00;66652.63;5048042;28;19933;-83
2023/02/09 02:31:56;;;;;;;;;;;;;;;-1.19;100.00;66651.88;5049295;28;20004;-83
2023/02/09 02:34:26;;;;;;;;;;;;;;;-1.28;100.00;66642.31;5045721;28;20363;-84
2023/02/09 02:37:10;;;;;;;;;;;;;;;-1.33;100.00;66633.53;5046654;28;19947;-84
2023/02/09 02:39:35;;;;;;;;;;;;;;;;;;5061421;28;19931;-84
2023/02/09 02:45:08;;;;;;;;;;;;;;;-1.37;100.00;66632.22;5054680;28;20396;-83
2023/02/09 02:47:35;;;;;;;;;;;;;;;-1.40;100.00;66626.81;5048793;28;19952;-85
2023/02/09 02:50:04;;;;;;;;;;;;;;;-1.39;100.00;66627.38;5049124;28;20888;-83
2023/02/09 02:52:30;;;;;;;;;;;;;;;-1.40;100.00;66621.59;5046962;28;20028;-84
2023/02/09 02:55:06;;;;;;;;;;;;;;;-1.47;100.00;66624.16;5044023;28;19989;-83
2023/02/09 02:57:33;;;;;;;;;;;;;;;-1.48;100.00;66617.81;5043114;28;19921;-83
2023/02/09 03:00:00;;;;;;;;;;;;;;;-1.58;100.00;66606.59;5044074;28;19971;-83
2023/02/09 03:02:32;;;;;;;;;;;;;;;-1.57;100.00;66607.16;5047543;28;20012;-85
2023/02/09 03:04:59;;;;;;;;;;;;;;;-1.58;100.00;66606.59;5048203;28;19924;-84
2023/02/09 03:07:24;;;;;;;;;;;;;;;-1.61;100.00;66609.00;5044468;28;19928;-84
2023/02/09 03:09:50;;;;;;;;;;;;;;;-1.67;100.00;66597.06;5039627;28;19921;-83
2023/02/09 03:12:35;;;;;;;;;;;;;;;-1.65;100.00;66599.28;5048315;28;20018;-84
2023/02/09 03:15:13;;;;;;;;;;;;;;;-1.63;100.00;66606.75;5037478;28;19975;-84
2023/02/09 03:18:05;;;;;;;;;;;;;;;-1.67;100.00;66601.69;5052412;28;19928;-84
2023/02/09 03:20:33;;;;;;;;;;;;;;;-1.72;100.00;66590.88;5025917;28;19924;-84
2023/02/09 03:23:03;;;;;;;;;;;;;;;-1.74;100.00;66591.81;5051776;28;19929;-83
2023/02/09 03:25:37;;;;;;;;;;;;;;;-1.78;100.00;66587.31;5050997;28;19921;-84
2023/02/09 03:28:07;;;;;;;;;;;;;;;-1.75;100.00;66590.13;5045816;28;19951;-84
2023/02/09 03:30:34;;;;;;;;;;;;;;;-1.75;100.00;66593.28;5050901;28;20357;-85
2023/02/09 03:33:01;;;;;;;;;;;;;;;-1.80;100.00;66584.50;5051223;28;19925;-84
2023/02/09 03:35:30;;;;;;;;;;;;;;;-1.81;100.00;66581.34;5051619;28;19928;-83
2023/02/09 03:37:55;;;;;;;;;;;;;;;-1.85;100.00;66579.44;5053568;28;19971;-83
2023/02/09 03:40:21;;;;;;;;;;;;;;;-1.84;100.00;66580.59;5049959;28;19924;-83
2023/02/09 03:42:46;;;;;;;;;;;;;;;-1.90;100.00;66571.22;5053272;28;19955;-84
2023/02/09 03:45:12;;;;;;;;;;;;;;;-1.92;100.00;66571.59;5047840;28;19943;-85
2023/02/09 03:47:37;;;;;;;;;;;;;;;-1.91;100.00;66575.88;5049538;28;19928;-83
2023/02/09 03:50:02;;;;;;;;;;;;;;;-1.89;100.00;66574.97;5051280;28;20317;-83
2023/02/09 03:52:29;;;;;;;;;;;;;;;-1.89;100.00;66574.97;5049748;28;19928;-84
2023/02/09 03:54:55;;;;;;;;;;;;;;;-1.87;100.00;66579.81;5052903;28;19988;-84
2023/02/09 03:57:20;;;;;;;;;;;;;;;-1.86;100.00;66578.34;5053094;28;19956;-84
2023/02/09 03:59:45;;;;;;;;;;;;;;;-1.89;100.00;66572.38;5053919;28;20321;-84
2023/02/09 04:02:10;;;;;;;;;;;;;;;-1.91;100.00;66572.72;5050442;28;19953;-84
2023/02/09 04:04:36;;;;;;;;;;;;;;;-1.89;100.00;66575.53;5052513;28;19921;-83
2023/02/09 04:07:02;;;;;;;;;;;;;;;-1.87;100.00;66579.81;5051982;28;20386;-85
2023/02/09 04:09:27;;;;;;;;;;;;;;;-1.87;100.00;66575.16;5049240;28;19921;-84
2023/02/09 04:11:52;;;;;;;;;;;;;;;-1.87;100.00;66574.59;5054221;28;20068;-84
2023/02/09 04:14:17;;;;;;;;;;;;;;;-1.91;100.00;66572.72;5050328;28;19990;-84
2023/02/09 04:16:43;;;;;;;;;;;;;;;-1.86;100.00;66576.28;5052395;28;20015;-84
2023/02/09 04:19:08;;;;;;;;;;;;;;;-1.87;100.00;66575.16;5049710;28;19925;-84
2023/02/09 04:21:33;;;;;;;;;;;;;;;;;;5051251;28;19925;-85
2023/02/09 04:23:59;;;;;;;;;;;;;;;-1.93;100.00;66567.88;5053892;28;19928;-85
2023/02/09 04:26:24;;;;;;;;;;;;;;;-1.94;100.00;66569.34;5055259;28;19928;-85
2023/02/09 04:28:49;;;;;;;;;;;;;;;-1.96;100.00;66565.06;5055172;28;19937;-84
2023/02/09 04:31:15;;;;;;;;;;;;;;;-1.97;100.00;66563.94;5057053;28;19932;-85
2023/02/09 04:33:40;;;;;;;;;;;;;;;-1.97;100.00;66563.38;5052714;28;19927;-85
2023/02/09 04:36:05;;;;;;;;;;;;;;;-1.99;100.00;66561.13;5048255;28;19927;-84
2023/02/09 04:38:31;;;;;;;;;;;;;;;-2.04;100.00;66558.69;5049254;28;19921;-85
2023/02/09 04:40:57;;;;;;;;;;;;;;;-2.01;100.00;66559.47;5047657;28;20006;-84
2023/02/09 04:43:23;;;;;;;;;;;;;;;-2.03;100.00;66561.88;5052942;28;19921;-84
2023/02/09 04:45:48;;;;;;;;;;;;;;;-2.06;100.00;66557.00;5045364;28;19917;-84
2023/02/09 04:48:15;;;;;;;;;;;;;;;-2.08;100.00;66554.75;5049202;28;19921;-84
2023/02/09 04:50:40;;;;;;;;;;;;;;;-2.08;100.00;66557.38;5049282;28;20000;-84
2023/02/09 04:53:05;;;;;;;;;;;;;;;-2.08;100.00;66552.16;5053191;28;19916;-83
2023/02/09 04:55:31;;;;;;;;;;;;;;;-2.07;100.00;66553.28;5053974;28;19917;-84
2023/02/09 05:00:40;;;;;;;;;;;;;;;-2.01;100.00;66562.06;5050054;28;19932;-83
2023/02/09 05:03:05;;;;;;;;;;;;;;;-2.01;100.00;66562.06;5056064;28;19921;-85
2023/02/09 05:05:31;;;;;;;;;;;;;;;-2.01;100.00;66554.25;5053792;28;19946;-83
2023/02/09 05:07:56;;;;;;;;;;;;;;;-2.03;100.00;66559.25;5052759;28;20402;-84
2023/02/09 05:10:21;;;;;;;;;;;;;;;-2.06;100.00;66553.84;5054849;28;19931;-84
2023/02/09 05:12:47;;;;;;;;;;;;;;;-2.05;100.00;66554.97;5053962;28;19928;-84
2023/02/09 05:15:12;;;;;;;;;;;;;;;-2.02;100.00;66558.31;5047586;28;20006;-87
2023/02/09 05:17:37;;;;;;;;;;;;;;;-2.03;100.00;66559.81;5049348;28;19920;-88
2023/02/09 05:20:03;;;;;;;;;;;;;;;-2.03;100.00;66559.81;5051642;28;20002;-83
2023/02/09 05:22:28;;;;;;;;;;;;;;;-2.03;100.00;66559.25;5053546;28;19917;-84
2023/02/09 05:24:53;;;;;;;;;;;;;;;-2.00;100.00;66560.00;5049524;28;19946;-83
2023/02/09 05:27:18;;;;;;;;;;;;;;;;;;5049035;28;19928;-85
2023/02/09 05:29:44;;;;;;;;;;;;;;;-2.00;100.00;66560.56;5046677;28;20631;-86
2023/02/09 05:32:09;;;;;;;;;;;;;;;-1.99;100.00;66566.91;5042427;28;19921;-84
2023/02/09 05:34:34;;;;;;;;;;;;;;;;;;5046880;28;19931;-87
2023/02/09 05:36:59;;;;;;;;;;;;;;;-2.03;100.00;66556.66;5038044;28;19921;-88
2023/02/09 05:39:25;;;;;;;;;;;;;;;-2.02;100.00;66560.38;5043389;28;19925;-88
2023/02/09 05:44:34;;;;;;;;;;;;;;;-2.05;100.00;66560.16;5043378;28;19955;-85
2023/02/09 05:46:59;;;;;;;;;;;;;;;-2.07;100.00;66555.91;5045789;28;20015;-86
2023/02/09 05:49:24;;;;;;;;;;;;;;;-2.08;100.00;66559.97;5045527;28;19925;-85
2023/02/09 05:51:50;;;;;;;;;;;;;;;-2.10;100.00;66552.53;5049806;28;19924;-85
2023/02/09 05:54:15;;;;;;;;;;;;;;;-2.08;100.00;66557.38;5049006;28;19921;-86
2023/02/09 05:56:40;;;;;;;;;;;;;;;-2.07;100.00;66558.50;5047203;28;19996;-85
2023/02/09 05:59:05;;;;;;;;;;;;;;;;;;5047697;28;19921;-85
2023/02/09 06:01:31;;;;;;;;;;;;;;;-2.10;100.00;66551.94;5049081;28;20175;-85
2023/02/09 06:03:56;;;;;;;;;;;;;;;-2.09;100.00;66558.84;5045143;28;20349;-87
2023/02/09 06:06:21;;;;;;;;;;;;;;;-2.13;100.00;66554.38;5046397;28;20390;-87
2023/02/09 06:08:47;;;;;;;;;;;;;;;-2.12;100.00;66549.72;5044029;28;20409;-87
2023/02/09 06:11:12;;;;;;;;;;;;;;;-2.12;100.00;66552.31;5042699;28;19928;-86
2023/02/09 06:13:37;;;;;;;;;;;;;;;-2.14;100.00;66545.41;5045621;28;19921;-85
2023/02/09 06:16:02;;;;;;;;;;;;;;;-2.12;100.00;66549.72;5043010;28;19925;-85
2023/02/09 06:18:27;;;;;;;;;;;;;;;-2.08;100.00;66552.16;5048075;28;19920;-87
2023/02/09 06:20:53;;;;;;;;;;;;;;;-2.14;100.00;66550.63;5048249;28;20453;-85
2023/02/09 06:23:18;;;;;;;;;;;;;;;-2.13;100.00;66549.16;5046392;28;20609;-87
2023/02/09 06:25:43;;;;;;;;;;;;;;;-2.16;100.00;66542.63;5046445;28;19950;-84
2023/02/09 06:28:09;;;;;;;;;;;;;;;-2.19;100.00;66542.41;5044497;28;19986;-86
2023/02/09 06:30:34;;;;;;;;;;;;;;;-2.23;100.00;66540.53;5045411;28;20402;-86
2023/02/09 06:32:59;;;;;;;;;;;;;;;-2.25;100.00;66532.53;5047835;28;20333;-85
2023/02/09 06:35:24;;;;;;;;;;;;;;;-2.25;100.00;66538.28;5039563;28;20373;-86
2023/02/09 06:37:50;;;;;;;;;;;;;;;-2.28;100.00;66529.72;5041366;28;19966;-84
2023/02/09 06:40:15;;;;;;;;;;;;;;;-2.30;100.00;66530.09;5045245;28;19925;-85
2023/02/09 06:42:43;;;;;;;;;;;;;;;-2.32;100.00;66528.41;5047286;28;19921;-87
2023/02/09 06:45:12;;;;;;;;;;;;;;;-2.33;100.00;66524.69;5045487;28;19921;-85
2023/02/09 06:47:42;;;;;;;;;;;;;;;-2.36;100.00;66526.53;5045031;28;19974;-85
2023/02/09 06:50:08;;;;;;;;;;;;;;;-2.35;100.00;66527.09;5048600;28;19974;-84
2023/02/09 06:52:34;;;;;;;;;;;;;;;-2.34;100.00;66522.97;5052576;28;19927;-86
2023/02/09 06:54:59;;;;;;;;;;;;;;;-2.33;100.00;66524.09;5052546;28;20030;-87
2023/02/09 06:57:24;;;;;;;;;;;;;;;-2.38;100.00;66518.50;5053313;28;19929;-86
2023/02/09 06:59:49;;;;;;;;;;;;;;;-2.42;100.00;66516.59;5055036;28;19992;-86
2023/02/09 07:02:15;;;;;;;;;;;;;;;-2.39;100.00;66519.97;5051446;28;19929;-86
2023/02/09 07:04:40;;;;;;;;;;;;;;;-2.41;100.00;66515.13;5046417;28;19987;-84
2023/02/09 07:07:05;;;;;;;;;;;;;;;-2.38;100.00;66518.50;5050989;28;19921;-85
2023/02/09 07:09:30;;;;;;;;;;;;;;;-2.40;100.00;66516.25;5044513;28;20565;-87
2023/02/09 07:11:55;;;;;;;;;;;;;;;-2.41;100.00;66518.31;5051413;28;20109;-87
2023/02/09 07:14:21;;;;;;;;;;;;;;;-2.40;100.00;66522.03;5046297;28;19974;-86
2023/02/09 07:16:46;;;;;;;;;;;;;;;-2.38;100.00;66523.72;5049585;28;19917;-86
2023/02/09 07:19:11;;;;;;;;;;;;;;;-2.37;100.00;66522.78;5052566;28;20413;-85
2023/02/09 07:21:37;;;;;;;;;;;;;;;-2.33;100.00;66524.09;5049315;28;20340;-85
2023/02/09 07:24:02;;;;;;;;;;;;;;;-2.34;100.00;66528.19;5048720;28;20710;-86
2023/02/09 07:26:27;;;;;;;;;;;;;;;-2.29;100.00;66533.81;5047917;28;19959;-86
2023/02/09 07:28:52;;;;;;;;;;;;;;;-2.24;100.00;66533.63;5047697;28;19928;-85
2023/02/09 07:31:18;;;;;;;;;;;;;;;-2.20;100.00;66541.28;5046890;28;20385;-86
2023/02/09 07:33:43;;;;;;;;;;;;;;;-2.16;100.00;66547.81;5051789;28;20045;-87
2023/02/09 07:36:09;;;;;;;;;;;;;;;-2.14;100.00;66545.41;5044066;28;20019;-86
2023/02/09 07:38:35;;;;;;;;;;;;;;;-2.10;100.00;66549.34;5047591;28;20011;-86
2023/02/09 07:41:02;;;;;;;;;;;;;;;-2.06;100.00;66561.66;5052950;28;19960;-86
2023/02/09 07:43:27;;;;;;;;;;;;;;;-2.02;100.00;66560.38;5051652;28;19916;-86
2023/02/09 07:45:57;;;;;;;;;;;;;;;-2.01;100.00;66559.47;5051937;28;19920;-86
2023/02/09 07:48:24;;;;;;;;;;;;;;;-1.96;100.00;66567.66;5043763;28;19917;-84
2023/02/09 07:50:49;;;;;;;;;;;;;;;-1.90;100.00;66579.06;5040689;28;20386;-86
2023/02/09 07:53:15;;;;;;;;;;;;;;;-1.87;100.00;66577.19;5048662;28;19999;-83
2023/02/09 07:55:40;;;;;;;;;;;;;;;-1.87;100.00;66577.78;5049894;28;20290;-85
2023/02/09 07:58:05;;;;;;;;;;;;;;;-1.82;100.00;66580.22;5048752;28;20378;-86
2023/02/09 08:00:30;;;;;;;;;;;;;;;-1.79;100.00;66586.19;5049070;28;19942;-84
2023/02/09 08:02:56;;;;;;;;;;;;;;;-1.76;100.00;66586.94;5057194;28;19941;-86
2023/02/09 08:05:41;;;;;;;;;;;;;;;-1.79;100.00;66583.56;5041452;28;19921;-83
2023/02/09 08:08:06;;;;;;;;;;;;;;;-1.76;100.00;66589.56;5047202;28;19979;-85
2023/02/09 08:10:32;;;;;;;;;;;;;;;-1.75;100.00;66590.69;5045927;28;20394;-85
2023/02/09 08:13:01;;;;;;;;;;;;;;;;;;5046504;28;19917;-83
2023/02/09 08:15:29;;;;;;;;;;;;;;;-1.70;100.00;66598.34;5044241;28;20415;-85
2023/02/09 08:17:55;;;;;;;;;;;;;;;-1.68;100.00;66603.75;5044919;28;19984;-86
2023/02/09 08:20:23;;;;;;;;;;;;;;;-1.64;100.00;66599.84;5044236;28;19921;-85
2023/02/09 08:22:50;;;;;;;;;;;;;;;-1.60;100.00;66607.53;5041818;28;19948;-85
2023/02/09 08:25:18;;;;;;;;;;;;;;;-1.56;100.00;66613.50;5043756;28;19927;-85
2023/02/09 08:27:43;;;;;;;;;;;;;;;-1.49;100.00;66616.16;5047628;28;19921;-86
2023/02/09 08:30:10;;;;;;;;;;;;;;;-1.46;100.00;66620.06;5035947;28;20377;-85
2023/02/09 08:32:35;;;;;;;;;;;;;;;-1.39;100.00;66632.59;5050485;28;19927;-85
2023/02/09 08:35:00;;;;;;;;;;;;;;;-1.36;100.00;66630.72;5044490;28;19921;-83
2023/02/09 08:37:25;;;;;;;;;;;;;;;-1.31;100.00;66641.56;5041405;28;19917;-86
2023/02/09 08:39:50;;;;;;;;;;;;;;;-1.27;100.00;66640.28;5046534;28;19925;-84
2023/02/09 08:42:16;;;;;;;;;;;;;;;-1.21;100.00;66647.59;5046179;28;19917;-84
2023/02/09 08:44:41;;;;;;;;;;;;;;;-1.20;100.00;66651.31;5057048;28;20031;-82
2023/02/09 08:47:06;;;;;;;;;;;;;;;-1.15;100.00;66654.31;5055271;28;19916;-84
2023/02/09 08:49:31;;;;;;;;;;;;;;;-1.10;100.00;66659.38;5060904;28;20437;-83
2023/02/09 08:51:57;;;;;;;;;;;;;;;-1.04;100.00;66670.78;5051195;28;20326;-81
2023/02/09 08:54:22;;;;;;;;;;;;;;;-1.00;100.00;66677.88;5046251;28;19921;-81
2023/02/09 08:56:47;;;;;;;;;;;;;;;-0.95;100.00;66675.66;5037478;28;19979;-84
2023/02/09 08:59:13;;;;;;;;;;;;;;;-0.89;100.00;66687.63;5041447;28;19960;-84
2023/02/09 09:01:39;;;;;;;;;;;;;;;-0.82;100.00;66692.88;5035503;28;20329;-84
2023/02/09 09:04:04;;;;;;;;;;;;;;;-0.77;100.00;66695.88;5050413;28;20003;-84
2023/02/09 09:06:30;;;;;;;;;;;;;;;-0.74;100.00;66703.94;5047566;28;20015;-84
2023/02/09 09:08:55;;;;;;;;;;;;;;;-0.70;100.00;66705.78;5046355;28;19928;-84
2023/02/09 09:11:20;;;;;;;;;;;;;;;-0.66;100.00;66709.72;5044058;28;20390;-84
2023/02/09 09:13:46;;;;;;;;;;;;;;;-0.64;100.00;66715.16;5043290;28;19921;-83
2023/02/09 09:16:19;;;;;;;;;;;;;;;-0.60;100.00;66716.47;5043390;28;19921;-84
2023/02/09 09:18:44;;;;;;;;;;;;;;;-0.54;100.00;66723.22;5045858;28;19921;-84
2023/02/09 09:21:14;;;;;;;;;;;;;;;-0.44;100.00;66733.91;5047000;28;19928;-82
2023/02/09 09:23:40;;;;;;;;;;;;;;;-0.35;100.00;66741.94;5045171;28;20012;-84
2023/02/09 09:26:05;;;;;;;;;;;;;;;-0.31;100.00;66754.31;5046019;28;20000;-84
2023/02/09 09:28:30;;;;;;;;;;;;;;;-0.22;100.00;66758.06;5041953;28;19978;-82
2023/02/09 09:30:57;;;;;;;;;;;;;;;-0.16;100.00;66762.75;5045398;28;19924;-85
2023/02/09 09:33:23;;;;;;;;;;;;;;;-0.12;100.00;66767.25;5035999;28;19964;-84
2023/02/09 09:35:48;;;;;;;;;;;;;;;-0.05;100.00;66774.56;5037547;28;19975;-83
2023/02/09 09:38:13;;;;;;;;;;;;;;;0.05;100.00;66791.03;5038044;28;20488;-82
2023/02/09 09:40:41;;;;;;;;;;;;;;;0.10;100.00;66790.88;5039077;28;19932;-82
2023/02/09 09:43:13;;;;;;;;;;;;;;;0.17;100.00;66799.31;5037361;28;19963;-85
2023/02/09 09:45:38;;;;;;;;;;;;;;;0.26;100.00;66814.09;5047510;28;19925;-84
2023/02/09 09:48:05;;;;;;;;;;;;;;;0.34;100.00;66820.47;5037341;28;19921;-84
2023/02/09 09:50:35;;;;;;;;;;;;;;;0.36;100.00;66820.09;5040085;28;19921;-84
2023/02/09 09:53:03;;;;;;;;;;;;;;;0.45;100.00;66832.84;5042779;28;19936;-84
2023/02/09 09:55:30;;;;;;;;;;;;;;;0.51;100.00;66836.41;5045184;28;19929;-85
2023/02/09 09:57:58;;;;;;;;;;;;;;;0.54;100.00;66839.22;5040434;28;19948;-83
2023/02/09 10:00:25;;;;;;;;;;;;;;;0.59;100.00;66847.47;5043190;28;19952;-84
2023/02/09 10:02:50;;;;;;;;;;;;;;;0.63;100.00;66852.53;5045533;28;19925;-82
2023/02/09 10:05:17;;;;;;;;;;;;;;;0.67;100.00;66853.84;5046443;28;19933;-83
2023/02/09 10:07:48;;;;;;;;;;;;;;;0.72;100.00;66862.09;5045048;28;19920;-81
2023/02/09 10:10:16;;;;;;;;;;;;;;;0.80;100.00;66867.91;5052032;28;19929;-82
2023/02/09 10:12:49;;;;;;;;;;;;;;;0.83;100.00;66876.53;5046674;28;19928;-83
2023/02/09 10:15:15;;;;;;;;;;;;;;;;;;5045807;28;19947;-81
2023/02/09 10:17:40;;;;;;;;;;;;;;;0.97;100.00;66892.28;5048678;28;19925;-82
2023/02/09 10:20:06;;;;;;;;;;;;;;;1.02;100.00;66892.09;5046311;28;19925;-82
2023/02/09 10:22:31;;;;;;;;;;;;;;;1.07;100.00;66897.75;5048224;28;19927;-84
2023/02/09 10:24:58;;;;;;;;;;;;;;;1.14;100.00;66905.59;5045407;28;20008;-84
2023/02/09 10:27:25;;;;;;;;;;;;;;;1.25;100.00;66918.00;5047481;28;20007;-84
2023/02/09 10:29:50;;;;;;;;;;;;;;;1.29;100.00;66921.94;5044885;28;19921;-83
2023/02/09 10:32:17;;;;;;;;;;;;;;;1.28;100.00;66921.38;5048942;28;19921;-85
2023/02/09 10:34:53;;;;;;;;;;;;;;;1.33;100.00;66926.44;5048338;28;20378;-82
2023/02/09 10:37:25;;;;;;;;;;;;;;;1.35;100.00;66928.69;5047043;28;19921;-83
2023/02/09 10:39:50;;;;;;;;;;;;;;;;;;5048993;28;19924;-84
2023/02/09 10:42:23;;;;;;;;;;;;;;;1.47;100.00;66942.19;5046509;28;19921;-85
2023/02/09 10:44:49;;;;;;;;;;;;;;;;;;5040683;28;19927;-84
2023/02/09 10:47:14;;;;;;;;;;;;;;;1.63;100.00;66959.66;5044997;28;19925;-85
2023/02/09 10:49:39;;;;;;;;;;;;;;;1.67;100.00;66964.16;5046293;28;20385;-87
2023/02/09 10:52:04;;;;;;;;;;;;;;;;;;5047171;28;20394;-84
2023/02/09 10:54:30;;;;;;;;;;;;;;;1.75;100.00;66973.16;5047209;28;20405;-85
2023/02/09 10:56:55;;;;;;;;;;;;;;;1.88;100.00;66981.44;5047090;28;19917;-83
2023/02/09 10:59:23;;;;;;;;;;;;;;;1.92;100.00;66991.75;5043857;28;19927;-83
2023/02/09 11:01:52;;;;;;;;;;;;;;;1.93;100.00;66995.50;5046542;28;19921;-84
2023/02/09 11:04:19;;;;;;;;;;;;;;;1.94;100.00;66994.00;5042059;28;20007;-89
2023/02/09 11:06:54;;;;;;;;;;;;;;;2.00;100.00;67003.38;5047720;28;19921;-83
2023/02/09 11:09:19;;;;;;;;;;;;;;;;;;5043512;28;20183;-83
2023/02/09 11:11:44;;;;;;;;;;;;;;;;;;5040412;28;19983;-83
2023/02/09 11:14:11;;;;;;;;;;;;;;;2.19;100.00;67023.66;5046934;28;19921;-83
2023/02/09 11:16:48;;;;;;;;;;;;;;;2.26;100.00;67032.09;5043583;28;19924;-83
2023/02/09 11:19:13;;;;;;;;;;;;;;;;;;5040575;28;20523;-83
2023/02/09 11:21:59;;;;;;;;;;;;;;;2.28;100.00;67031.19;5041537;28;19929;-83
2023/02/09 11:24:24;;;;;;;;;;;;;;;;;;5046600;28;19940;-83
2023/02/09 11:26:49;;;;;;;;;;;;;;;;;;5048088;28;19951;-84
2023/02/09 11:29:14;;;;;;;;;;;;;;;;;;5047480;28;19917;-84
2023/02/09 11:31:39;;;;;;;;;;;;;;;;;;5049355;28;19921;-86
2023/02/09 11:34:05;;;;;;;;;;;;;;;;;;5049551;28;20012;-84
2023/02/09 11:36:30;;;;;;;;;;;;;;;;;;5049927;28;19917;-85
2023/02/09 11:39:09;;;;;;;;;;;;;;;2.81;100.00;67089.78;5050315;28;19917;-82
2023/02/09 11:44:40;;;;;;;;;;;;;;;2.76;100.00;67084.13;5048024;28;19978;-82
2023/02/09 11:47:11;;;;;;;;;;;;;;;2.86;100.00;67095.41;5050422;28;19921;-84
2023/02/09 11:49:42;;;;;;;;;;;;;;;2.89;100.00;67098.78;5049431;28;19971;-82
2023/02/09 11:52:10;;;;;;;;;;;;;;;2.90;100.00;67099.34;5053736;28;19920;-84
2023/02/09 11:54:35;;;;;;;;;;;;;;;2.90;99.19;67099.34;5052456;28;19921;-85
2023/02/09 11:57:10;;;;;;;;;;;;;;;2.90;99.45;67101.97;5045262;28;19927;-86
2023/02/09 11:59:38;;;;;;;;;;;;;;;2.97;100.00;67106.69;5046969;28;19971;-84
2023/02/09 12:02:09;;;;;;;;;;;;;;;3.00;100.00;67115.34;5051727;28;19928;-87
2023/02/09 12:04:34;;;;;;;;;;;;;;;;;;5052095;28;20016;-85
2023/02/09 12:07:01;;;;;;;;;;;;;;;3.18;100.00;67133.00;5051212;28;20015;-85
2023/02/09 12:09:37;;;;;;;;;;;;;;;3.13;98.58;67125.28;5052353;28;19923;-83
2023/02/09 12:12:02;;;;;;;;;;;;;;;3.22;99.97;67134.88;5035309;28;19952;-82
2023/02/09 12:14:37;;;;;;;;;;;;;;;3.25;100.00;67138.25;5032156;28;20015;-82
2023/02/09 12:17:26;;;;;;;;;;;;;;;3.30;100.00;67143.88;5050498;28;19921;-82
2023/02/09 12:19:56;;;;;;;;;;;;;;;3.36;98.99;67145.38;4993188;28;19925;-83
2023/02/09 12:22:33;;;;;;;;;;;;;;;3.53;100.00;67171.34;5050784;28;19932;-82
2023/02/09 12:25:04;;;;;;;;;;;;;;;3.57;100.00;67176.41;5040307;28;19917;-83
2023/02/09 12:27:30;;;;;;;;;;;;;;;3.49;95.78;67164.75;5050294;28;19975;-83
2023/02/09 12:29:55;;;;;;;;;;;;;;;3.37;100.00;67151.78;5051337;28;19921;-83
2023/02/09 12:32:20;;;;;;;;;;;;;;;;;;5049003;28;20302;-83
2023/02/09 12:34:45;;;;;;;;;;;;;;;;;;5043139;28;19921;-85
2023/02/09 12:37:13;;;;;;;;;;;;;;;3.31;100.00;67145.03;5049926;28;20313;-82
2023/02/09 12:39:57;;;;;;;;;;;;;;;3.30;100.00;67143.88;5041344;28;19928;-84
2023/02/09 12:42:25;;;;;;;;;;;;;;;3.23;98.36;67135.44;5038981;28;19932;-86
2023/02/09 12:44:55;;;;;;;;;;;;;;;3.13;100.00;67125.28;5048309;28;19923;-87
2023/02/09 12:47:39;;;;;;;;;;;;;;;3.14;100.00;67121.16;5036515;28;20007;-84
2023/02/09 12:50:18;;;;;;;;;;;;;;;3.27;100.00;67140.50;5051053;28;19924;-83
2023/02/09 12:52:43;;;;;;;;;;;;;;;;;;5038744;28;19978;-85
2023/02/09 12:55:16;;;;;;;;;;;;;;;3.10;100.00;67121.34;5050384;28;19916;-83
2023/02/09 12:57:41;;;;;;;;;;;;;;;;;;5048353;28;19917;-85
2023/02/09 13:00:07;;;;;;;;;;;;;;;;;;5051274;28;19920;-84
2023/02/09 13:02:34;;;;;;;;;;;;;;;3.21;100.00;67133.19;5040109;28;19917;-83
2023/02/09 13:05:02;;;;;;;;;;;;;;;3.16;100.00;67128.09;5043691;28;19920;-84
2023/02/09 13:07:46;;;;;;;;;;;;;;;3.11;100.00;67117.22;5046045;28;19929;-84
2023/02/09 13:10:30;;;;;;;;;;;;;;;3.17;100.00;67131.88;5046665;28;19924;-84
2023/02/09 13:13:04;;;;;;;;;;;;;;;3.15;100.00;67126.97;5038724;28;19971;-84
2023/02/09 13:15:29;;;;;;;;;;;;;;;;;;5044402;28;19923;-85